sensor_id;sensor_type;location;lat;lon;timestamp;pressure;altitude;pressure_sealevel;temperature;humidity
50933;BME280;36921;49.006;9.292;2023-07-29T00:02:07;98507.63;;;16.78;100.00
50933;BME280;36921;49.006;9.292;2023-07-29T00:04:32;98497.81;;;16.77;100.00
50933;BME280;36921;49.006;9.292;2023-07-29T00:06:57;98514.34;;;16.88;100.00
50933;BME280;36921;49.006;9.292;2023-07-29T00:09:23;98520.34;;;16.90;100.00
50933;BME280;36921;49.006;9.292;2023-07-29T00:11:48;98500.25;;;16.96;100.00
50933;BME280;36921;49.006;9.292;2023-07-29T00:14:13;98499.97;;;16.97;100.00
50933;BME280;36921;49.006;9.292;2023-07-29T00:16:39;98499.97;;;16.97;100.00
50933;BME280;36921;49.006;9.292;2023-07-29T00:19:04;98497.25;;;16.97;100.00
50933;BME280;36921;49.006;9.292;2023-07-29T00:21:29;98472.25;;;16.89;100.00
50933;BME280;36921;49.006;9.292;2023-07-29T00:23:55;98492.44;;;17.04;100.00
50933;BME280;36921;49.006;9.292;2023-07-29T00:26:22;98482.75;;;16.97;100.00
50933;BME280;36921;49.006;9.292;2023-07-29T00:28:48;98480.66;;;17.04;100.00
50933;BME280;36921;49.006;9.292;2023-07-29T00:31:13;98481.31;;;17.11;100.00
50933;BME280;36921;49.006;9.292;2023-07-29T00:33:38;98472.03;;;17.12;100.00
50933;BME280;36921;49.006;9.292;2023-07-29T00:36:04;98473.19;;;17.16;100.00
50933;BME280;36921;49.006;9.292;2023-07-29T00:38:29;98465.53;;;17.18;100.00
50933;BME280;36921;49.006;9.292;2023-07-29T00:40:57;98457.28;;;17.13;100.00
50933;BME280;36921;49.006;9.292;2023-07-29T00:43:22;98457.34;;;17.18;100.00
50933;BME280;36921;49.006;9.292;2023-07-29T00:45:47;98467.28;;;17.24;100.00
50933;BME280;36921;49.006;9.292;2023-07-29T00:48:12;98460.72;;;17.25;100.00
50933;BME280;36921;49.006;9.292;2023-07-29T00:50:38;98450.94;;;17.29;100.00
50933;BME280;36921;49.006;9.292;2023-07-29T00:53:03;98449.25;;;17.28;100.00
50933;BME280;36921;49.006;9.292;2023-07-29T00:55:29;98447.91;;;17.31;100.00
50933;BME280;36921;49.006;9.292;2023-07-29T00:57:54;98439.72;;;17.31;100.00
50933;BME280;36921;49.006;9.292;2023-07-29T01:00:21;98436.28;;;17.41;100.00
50933;BME280;36921;49.006;9.292;2023-07-29T01:02:47;98430.50;;;17.37;100.00
50933;BME280;36921;49.006;9.292;2023-07-29T01:05:14;98431.56;;;17.36;100.00
50933;BME280;36921;49.006;9.292;2023-07-29T01:07:49;98425.81;;;17.33;100.00
50933;BME280;36921;49.006;9.292;2023-07-29T01:12:54;98429.22;;;17.23;100.00
50933;BME280;36921;49.006;9.292;2023-07-29T01:15:32;98422.88;;;17.17;100.00
50933;BME280;36921;49.006;9.292;2023-07-29T01:18:11;98427.91;;;17.25;100.00
50933;BME280;36921;49.006;9.292;2023-07-29T01:20:40;98419.97;;;17.24;100.00
50933;BME280;36921;49.006;9.292;2023-07-29T01:23:07;98414.22;;;17.25;100.00
50933;BME280;36921;49.006;9.292;2023-07-29T01:25:33;98407.13;;;17.24;100.00
50933;BME280;36921;49.006;9.292;2023-07-29T01:27:58;98407.63;;;17.21;100.00
50933;BME280;36921;49.006;9.292;2023-07-29T01:30:29;98402.34;;;17.15;100.00
50933;BME280;36921;49.006;9.292;2023-07-29T01:33:20;98411.94;;;17.17;100.00
50933;BME280;36921;49.006;9.292;2023-07-29T01:36:03;98407.88;;;17.20;100.00
50933;BME280;36921;49.006;9.292;2023-07-29T01:38:32;98399.81;;;17.08;100.00
50933;BME280;36921;49.006;9.292;2023-07-29T01:41:01;98409.22;;;17.17;100.00
50933;BME280;36921;49.006;9.292;2023-07-29T01:43:28;98416.25;;;17.13;100.00
50933;BME280;36921;49.006;9.292;2023-07-29T01:45:54;98412.66;;;17.07;100.00
50933;BME280;36921;49.006;9.292;2023-07-29T01:48:19;98409.59;;;17.04;100.00
50933;BME280;36921;49.006;9.292;2023-07-29T01:50:44;98411.94;;;17.17;100.00
50933;BME280;36921;49.006;9.292;2023-07-29T01:53:10;98394.66;;;17.12;100.00
50933;BME280;36921;49.006;9.292;2023-07-29T01:55:35;98398.34;;;17.22;100.00
50933;BME280;36921;49.006;9.292;2023-07-29T01:58:00;98398.59;;;17.21;100.00
50933;BME280;36921;49.006;9.292;2023-07-29T02:00:26;98395.03;;;17.20;100.00
50933;BME280;36921;49.006;9.292;2023-07-29T02:02:51;98388.94;;;17.13;100.00
50933;BME280;36921;49.006;9.292;2023-07-29T02:05:16;98376.28;;;17.07;100.00
50933;BME280;36921;49.006;9.292;2023-07-29T02:07:42;98391.59;;;17.08;100.00
50933;BME280;36921;49.006;9.292;2023-07-29T02:10:07;98390.31;;;17.16;100.00
50933;BME280;36921;49.006;9.292;2023-07-29T02:12:33;98386.88;;;17.25;100.00
50933;BME280;36921;49.006;9.292;2023-07-29T02:14:59;98374.84;;;17.21;100.00
50933;BME280;36921;49.006;9.292;2023-07-29T02:17:24;98376.72;;;17.21;100.00
50933;BME280;36921;49.006;9.292;2023-07-29T02:19:51;98378.44;;;17.27;100.00
50933;BME280;36921;49.006;9.292;2023-07-29T02:22:17;98375.44;;;17.28;100.00
50933;BME280;36921;49.006;9.292;2023-07-29T02:24:42;98389.38;;;17.27;100.00
50933;BME280;36921;49.006;9.292;2023-07-29T02:27:08;98382.25;;;17.26;100.00
50933;BME280;36921;49.006;9.292;2023-07-29T02:29:33;98383.84;;;17.22;100.00
50933;BME280;36921;49.006;9.292;2023-07-29T02:31:59;98379.09;;;17.12;100.00
50933;BME280;36921;49.006;9.292;2023-07-29T02:34:25;98370.88;;;17.12;100.00
50933;BME280;36921;49.006;9.292;2023-07-29T02:36:50;98367.63;;;17.15;100.00
50933;BME280;36921;49.006;9.292;2023-07-29T02:39:15;98377.19;;;17.13;100.00
50933;BME280;36921;49.006;9.292;2023-07-29T02:41:41;98371.06;;;17.05;100.00
50933;BME280;36921;49.006;9.292;2023-07-29T02:44:06;98369.19;;;17.06;100.00
50933;BME280;36921;49.006;9.292;2023-07-29T02:46:31;98376.88;;;17.09;100.00
50933;BME280;36921;49.006;9.292;2023-07-29T02:48:57;98367.78;;;17.03;100.00
50933;BME280;36921;49.006;9.292;2023-07-29T02:51:22;98376.53;;;17.05;100.00
50933;BME280;36921;49.006;9.292;2023-07-29T02:53:47;98368.56;;;16.99;100.00
50933;BME280;36921;49.006;9.292;2023-07-29T02:56:13;98373.00;;;17.05;100.00
50933;BME280;36921;49.006;9.292;2023-07-29T02:58:38;98375.19;;;17.03;100.00
50933;BME280;36921;49.006;9.292;2023-07-29T03:01:05;98376.81;;;17.04;100.00
50933;BME280;36921;49.006;9.292;2023-07-29T03:03:31;98360.34;;;16.99;100.00
50933;BME280;36921;49.006;9.292;2023-07-29T03:06:08;98352.22;;;17.04;100.00
50933;BME280;36921;49.006;9.292;2023-07-29T03:08:34;98346.75;;;17.04;100.00
50933;BME280;36921;49.006;9.292;2023-07-29T03:11:12;98349.78;;;17.07;100.00
50933;BME280;36921;49.006;9.292;2023-07-29T03:13:37;98332.81;;;17.05;100.00
50933;BME280;36921;49.006;9.292;2023-07-29T03:18:34;98324.00;;;16.98;100.00
50933;BME280;36921;49.006;9.292;2023-07-29T03:21:00;98331.34;;;16.93;100.00
50933;BME280;36921;49.006;9.292;2023-07-29T03:23:25;98321.25;;;16.76;100.00
50933;BME280;36921;49.006;9.292;2023-07-29T03:25:51;98318.06;;;16.79;100.00
50933;BME280;36921;49.006;9.292;2023-07-29T03:28:18;98331.56;;;16.69;100.00
50933;BME280;36921;49.006;9.292;2023-07-29T03:30:43;98322.09;;;16.55;100.00
50933;BME280;36921;49.006;9.292;2023-07-29T03:33:08;98329.16;;;16.51;100.00
50933;BME280;36921;49.006;9.292;2023-07-29T03:35:34;98345.78;;;16.49;100.00
50933;BME280;36921;49.006;9.292;2023-07-29T03:37:59;98359.75;;;16.53;100.00
50933;BME280;36921;49.006;9.292;2023-07-29T03:40:24;98371.06;;;16.61;100.00
50933;BME280;36921;49.006;9.292;2023-07-29T03:42:49;98363.31;;;16.75;100.00
50933;BME280;36921;49.006;9.292;2023-07-29T03:45:15;98354.19;;;16.86;100.00
50933;BME280;36921;49.006;9.292;2023-07-29T03:47:40;98351.00;;;16.95;100.00
50933;BME280;36921;49.006;9.292;2023-07-29T03:50:06;98340.06;;;16.95;100.00
50933;BME280;36921;49.006;9.292;2023-07-29T03:52:31;98327.63;;;17.04;100.00
50933;BME280;36921;49.006;9.292;2023-07-29T03:54:56;98317.22;;;17.01;100.00
50933;BME280;36921;49.006;9.292;2023-07-29T03:57:21;98320.75;;;17.01;100.00
50933;BME280;36921;49.006;9.292;2023-07-29T03:59:47;98317.25;;;17.06;100.00
50933;BME280;36921;49.006;9.292;2023-07-29T04:02:12;98318.03;;;17.01;100.00
50933;BME280;36921;49.006;9.292;2023-07-29T04:04:37;98321.13;;;17.10;100.00
50933;BME280;36921;49.006;9.292;2023-07-29T04:07:03;98309.06;;;17.06;100.00
50933;BME280;36921;49.006;9.292;2023-07-29T04:09:28;98310.19;;;17.10;100.00
50933;BME280;36921;49.006;9.292;2023-07-29T04:11:54;98319.25;;;17.16;100.00
50933;BME280;36921;49.006;9.292;2023-07-29T04:14:19;98310.81;;;17.17;100.00
50933;BME280;36921;49.006;9.292;2023-07-29T04:16:44;98309.13;;;17.11;100.00
50933;BME280;36921;49.006;9.292;2023-07-29T04:19:10;98310.91;;;17.00;100.00
50933;BME280;36921;49.006;9.292;2023-07-29T04:21:35;98323.38;;;16.91;100.00
50933;BME280;36921;49.006;9.292;2023-07-29T04:24:01;98319.31;;;16.72;100.00
50933;BME280;36921;49.006;9.292;2023-07-29T04:26:26;98341.47;;;16.75;100.00
50933;BME280;36921;49.006;9.292;2023-07-29T04:28:51;98334.38;;;16.74;100.00
50933;BME280;36921;49.006;9.292;2023-07-29T04:31:16;98324.13;;;16.64;100.00
50933;BME280;36921;49.006;9.292;2023-07-29T04:33:42;98340.53;;;16.64;100.00
50933;BME280;36921;49.006;9.292;2023-07-29T04:36:07;98345.47;;;16.68;100.00
50933;BME280;36921;49.006;9.292;2023-07-29T04:38:33;98351.25;;;16.71;100.00
50933;BME280;36921;49.006;9.292;2023-07-29T04:40:59;98363.09;;;16.77;100.00
50933;BME280;36921;49.006;9.292;2023-07-29T04:43:30;98368.31;;;16.78;100.00
50933;BME280;36921;49.006;9.292;2023-07-29T04:45:56;98362.69;;;16.68;100.00
50933;BME280;36921;49.006;9.292;2023-07-29T04:48:22;98366.50;;;16.67;100.00
50933;BME280;36921;49.006;9.292;2023-07-29T04:50:47;98387.25;;;16.68;100.00
50933;BME280;36921;49.006;9.292;2023-07-29T05:00:09;98425.28;;;16.53;100.00
50933;BME280;36921;49.006;9.292;2023-07-29T05:02:34;98417.88;;;16.48;100.00
50933;BME280;36921;49.006;9.292;2023-07-29T05:05:00;98401.88;;;16.40;100.00
50933;BME280;36921;49.006;9.292;2023-07-29T05:07:25;98401.00;;;16.34;100.00
50933;BME280;36921;49.006;9.292;2023-07-29T05:09:50;98394.63;;;16.46;100.00
50933;BME280;36921;49.006;9.292;2023-07-29T05:12:16;98383.13;;;16.43;100.00
50933;BME280;36921;49.006;9.292;2023-07-29T05:14:41;98390.28;;;16.50;100.00
50933;BME280;36921;49.006;9.292;2023-07-29T05:17:07;98383.44;;;16.47;100.00
50933;BME280;36921;49.006;9.292;2023-07-29T05:19:32;98399.88;;;16.69;100.00
50933;BME280;36921;49.006;9.292;2023-07-29T05:21:57;98385.19;;;16.75;100.00
50933;BME280;36921;49.006;9.292;2023-07-29T05:24:23;98376.13;;;16.92;100.00
50933;BME280;36921;49.006;9.292;2023-07-29T05:26:49;98386.13;;;17.08;100.00
50933;BME280;36921;49.006;9.292;2023-07-29T05:29:14;98377.75;;;17.42;100.00
50933;BME280;36921;49.006;9.292;2023-07-29T05:31:40;98378.38;;;17.49;100.00
50933;BME280;36921;49.006;9.292;2023-07-29T05:34:05;98357.53;;;17.43;100.00
50933;BME280;36921;49.006;9.292;2023-07-29T05:36:30;98373.34;;;17.68;100.00
50933;BME280;36921;49.006;9.292;2023-07-29T05:38:56;98373.91;;;17.70;100.00
50933;BME280;36921;49.006;9.292;2023-07-29T05:41:21;98373.09;;;17.69;100.00
50933;BME280;36921;49.006;9.292;2023-07-29T05:43:47;98393.19;;;17.80;100.00
50933;BME280;36921;49.006;9.292;2023-07-29T05:46:12;98367.22;;;17.83;100.00
50933;BME280;36921;49.006;9.292;2023-07-29T05:48:37;98378.22;;;17.88;100.00
50933;BME280;36921;49.006;9.292;2023-07-29T05:51:03;98370.09;;;17.98;100.00
50933;BME280;36921;49.006;9.292;2023-07-29T05:53:30;98379.69;;;18.01;100.00
50933;BME280;36921;49.006;9.292;2023-07-29T05:55:56;98373.50;;;17.83;100.00
50933;BME280;36921;49.006;9.292;2023-07-29T05:58:21;98371.91;;;17.87;100.00
50933;BME280;36921;49.006;9.292;2023-07-29T06:00:46;98380.47;;;17.96;100.00
50933;BME280;36921;49.006;9.292;2023-07-29T06:03:12;98355.53;;;17.92;100.00
50933;BME280;36921;49.006;9.292;2023-07-29T06:05:38;98370.16;;;18.08;100.00
50933;BME280;36921;49.006;9.292;2023-07-29T06:08:04;98366.31;;;18.09;100.00
50933;BME280;36921;49.006;9.292;2023-07-29T06:10:29;98352.22;;;18.28;100.00
50933;BME280;36921;49.006;9.292;2023-07-29T06:12:55;98339.22;;;18.55;100.00
50933;BME280;36921;49.006;9.292;2023-07-29T06:15:20;98328.38;;;18.76;100.00
50933;BME280;36921;49.006;9.292;2023-07-29T06:17:48;98312.53;;;18.98;100.00
50933;BME280;36921;49.006;9.292;2023-07-29T06:20:13;98313.19;;;19.41;100.00
50933;BME280;36921;49.006;9.292;2023-07-29T06:22:39;98301.94;;;19.43;100.00
50933;BME280;36921;49.006;9.292;2023-07-29T06:25:04;98299.44;;;19.52;100.00
50933;BME280;36921;49.006;9.292;2023-07-29T06:27:30;98301.38;;;19.56;100.00
50933;BME280;36921;49.006;9.292;2023-07-29T06:29:55;98297.81;;;19.40;100.00
50933;BME280;36921;49.006;9.292;2023-07-29T06:32:20;98296.44;;;19.53;100.00
50933;BME280;36921;49.006;9.292;2023-07-29T06:34:46;98309.34;;;19.42;100.00
50933;BME280;36921;49.006;9.292;2023-07-29T06:37:11;98309.06;;;19.64;100.00
50933;BME280;36921;49.006;9.292;2023-07-29T06:39:37;98313.72;;;19.54;100.00
50933;BME280;36921;49.006;9.292;2023-07-29T06:42:02;98316.22;;;19.55;100.00
50933;BME280;36921;49.006;9.292;2023-07-29T06:44:28;98307.97;;;19.35;100.00
50933;BME280;36921;49.006;9.292;2023-07-29T06:46:53;98321.09;;;19.22;100.00
50933;BME280;36921;49.006;9.292;2023-07-29T06:49:19;98336.47;;;19.29;100.00
50933;BME280;36921;49.006;9.292;2023-07-29T06:51:44;98347.44;;;19.18;100.00
50933;BME280;36921;49.006;9.292;2023-07-29T06:54:09;98343.31;;;19.21;100.00
50933;BME280;36921;49.006;9.292;2023-07-29T06:56:35;98351.00;;;19.19;100.00
50933;BME280;36921;49.006;9.292;2023-07-29T06:59:00;98353.47;;;19.20;100.00
50933;BME280;36921;49.006;9.292;2023-07-29T07:01:26;98356.44;;;19.09;100.00
50933;BME280;36921;49.006;9.292;2023-07-29T07:03:51;98347.41;;;19.13;100.00
50933;BME280;36921;49.006;9.292;2023-07-29T07:06:21;98354.25;;;19.11;100.00
50933;BME280;36921;49.006;9.292;2023-07-29T07:08:48;98354.50;;;19.04;100.00
50933;BME280;36921;49.006;9.292;2023-07-29T07:11:13;98357.56;;;19.13;100.00
50933;BME280;36921;49.006;9.292;2023-07-29T07:13:39;98370.94;;;18.99;100.00
50933;BME280;36921;49.006;9.292;2023-07-29T07:16:04;98378.03;;;18.85;100.00
50933;BME280;36921;49.006;9.292;2023-07-29T07:18:30;98371.16;;;18.82;100.00
50933;BME280;36921;49.006;9.292;2023-07-29T07:20:56;98382.44;;;18.91;100.00
50933;BME280;36921;49.006;9.292;2023-07-29T07:23:21;98387.09;;;18.90;100.00
50933;BME280;36921;49.006;9.292;2023-07-29T07:25:47;98385.78;;;19.03;100.00
50933;BME280;36921;49.006;9.292;2023-07-29T07:28:12;98394.72;;;18.83;100.00
50933;BME280;36921;49.006;9.292;2023-07-29T07:30:41;98394.38;;;18.74;100.00
50933;BME280;36921;49.006;9.292;2023-07-29T07:33:07;98403.34;;;18.59;100.00
50933;BME280;36921;49.006;9.292;2023-07-29T07:35:33;98403.06;;;18.56;100.00
50933;BME280;36921;49.006;9.292;2023-07-29T07:37:58;98408.56;;;18.61;100.00
50933;BME280;36921;49.006;9.292;2023-07-29T07:40:28;98407.88;;;18.76;100.00
50933;BME280;36921;49.006;9.292;2023-07-29T07:42:53;98410.94;;;18.90;100.00
50933;BME280;36921;49.006;9.292;2023-07-29T07:45:19;98410.66;;;18.91;100.00
50933;BME280;36921;49.006;9.292;2023-07-29T07:47:44;98403.31;;;18.97;100.00
50933;BME280;36921;49.006;9.292;2023-07-29T07:50:10;98405.47;;;18.95;100.00
50933;BME280;36921;49.006;9.292;2023-07-29T07:52:36;98400.28;;;18.98;100.00
50933;BME280;36921;49.006;9.292;2023-07-29T07:55:01;98403.31;;;19.07;100.00
50933;BME280;36921;49.006;9.292;2023-07-29T07:57:27;98399.28;;;19.25;100.00
50933;BME280;36921;49.006;9.292;2023-07-29T07:59:52;98393.28;;;19.48;100.00
50933;BME280;36921;49.006;9.292;2023-07-29T08:02:18;98380.75;;;19.78;100.00
50933;BME280;36921;49.006;9.292;2023-07-29T08:04:43;98366.38;;;20.53;100.00
50933;BME280;36921;49.006;9.292;2023-07-29T08:07:09;98337.03;;;21.08;100.00
50933;BME280;36921;49.006;9.292;2023-07-29T08:09:34;98317.56;;;21.49;100.00
50933;BME280;36921;49.006;9.292;2023-07-29T08:12:00;98308.47;;;21.83;100.00
50933;BME280;36921;49.006;9.292;2023-07-29T08:14:25;98287.13;;;21.99;100.00
50933;BME280;36921;49.006;9.292;2023-07-29T08:16:51;98284.22;;;22.62;100.00
50933;BME280;36921;49.006;9.292;2023-07-29T08:19:17;98266.56;;;23.25;100.00
50933;BME280;36921;49.006;9.292;2023-07-29T08:21:42;98262.19;;;23.57;100.00
50933;BME280;36921;49.006;9.292;2023-07-29T08:24:08;98254.66;;;24.23;100.00
50933;BME280;36921;49.006;9.292;2023-07-29T08:26:33;98243.72;;;25.68;100.00
50933;BME280;36921;49.006;9.292;2023-07-29T08:28:58;98243.25;;;26.95;100.00
50933;BME280;36921;49.006;9.292;2023-07-29T08:31:24;98249.28;;;27.05;100.00
50933;BME280;36921;49.006;9.292;2023-07-29T08:33:49;98263.91;;;25.69;100.00
50933;BME280;36921;49.006;9.292;2023-07-29T08:36:15;98284.44;;;24.12;100.00
50933;BME280;36921;49.006;9.292;2023-07-29T08:38:40;98294.56;;;22.94;100.00
50933;BME280;36921;49.006;9.292;2023-07-29T08:44:07;98320.84;;;21.85;100.00
50933;BME280;36921;49.006;9.292;2023-07-29T08:46:35;98320.50;;;21.92;100.00
50933;BME280;36921;49.006;9.292;2023-07-29T08:49:01;98315.44;;;22.04;100.00
50933;BME280;36921;49.006;9.292;2023-07-29T08:51:27;98308.75;;;22.40;100.00
50933;BME280;36921;49.006;9.292;2023-07-29T08:53:55;98307.03;;;22.68;100.00
50933;BME280;36921;49.006;9.292;2023-07-29T08:56:20;98288.53;;;23.49;100.00
50933;BME280;36921;49.006;9.292;2023-07-29T08:58:46;98284.88;;;24.33;100.00
50933;BME280;36921;49.006;9.292;2023-07-29T09:01:12;98283.19;;;25.29;100.00
50933;BME280;36921;49.006;9.292;2023-07-29T09:03:38;98276.09;;;26.13;100.00
50933;BME280;36921;49.006;9.292;2023-07-29T09:06:05;98272.53;;;26.52;100.00
50933;BME280;36921;49.006;9.292;2023-07-29T09:08:30;98271.53;;;27.75;100.00
50933;BME280;36921;49.006;9.292;2023-07-29T09:10:57;98271.00;;;30.72;100.00
50933;BME280;36921;49.006;9.292;2023-07-29T09:13:22;98265.38;;;33.01;100.00
50933;BME280;36921;49.006;9.292;2023-07-29T09:15:48;98255.47;;;34.20;99.78
50933;BME280;36921;49.006;9.292;2023-07-29T09:18:19;98258.03;;;32.77;95.51
50933;BME280;36921;49.006;9.292;2023-07-29T09:20:49;98245.41;;;33.76;92.82
50933;BME280;36921;49.006;9.292;2023-07-29T09:23:15;98249.16;;;34.26;90.30
50933;BME280;36921;49.006;9.292;2023-07-29T09:25:40;98238.75;;;33.85;84.52
50933;BME280;36921;49.006;9.292;2023-07-29T09:28:10;98250.50;;;32.01;100.00
50933;BME280;36921;49.006;9.292;2023-07-29T09:30:38;98252.50;;;29.31;100.00
50933;BME280;36921;49.006;9.292;2023-07-29T09:33:04;98250.47;;;28.89;100.00
50933;BME280;36921;49.006;9.292;2023-07-29T09:35:33;98253.84;;;28.74;100.00
50933;BME280;36921;49.006;9.292;2023-07-29T09:37:59;98253.28;;;27.30;100.00
50933;BME280;36921;49.006;9.292;2023-07-29T09:40:25;98257.47;;;27.80;100.00
50933;BME280;36921;49.006;9.292;2023-07-29T09:42:51;98250.56;;;26.73;100.00
50933;BME280;36921;49.006;9.292;2023-07-29T09:45:25;98264.75;;;26.23;100.00
50933;BME280;36921;49.006;9.292;2023-07-29T09:47:56;98264.63;;;25.83;100.00
50933;BME280;36921;49.006;9.292;2023-07-29T09:50:26;98270.09;;;25.66;100.00
50933;BME280;36921;49.006;9.292;2023-07-29T09:52:53;98277.63;;;24.79;100.00
50933;BME280;36921;49.006;9.292;2023-07-29T09:55:21;98280.84;;;23.98;100.00
50933;BME280;36921;49.006;9.292;2023-07-29T09:57:47;98287.38;;;22.74;100.00
50933;BME280;36921;49.006;9.292;2023-07-29T10:00:13;98305.25;;;21.31;100.00
50933;BME280;36921;49.006;9.292;2023-07-29T10:02:40;98344.97;;;20.40;100.00
50933;BME280;36921;49.006;9.292;2023-07-29T10:05:06;98365.91;;;19.74;100.00
50933;BME280;36921;49.006;9.292;2023-07-29T10:07:34;98376.28;;;19.36;100.00
50933;BME280;36921;49.006;9.292;2023-07-29T10:10:02;98362.00;;;19.34;100.00
50933;BME280;36921;49.006;9.292;2023-07-29T10:12:28;98362.56;;;19.41;100.00
50933;BME280;36921;49.006;9.292;2023-07-29T10:14:59;98365.63;;;19.65;100.00
50933;BME280;36921;49.006;9.292;2023-07-29T10:17:26;98363.44;;;19.83;100.00
50933;BME280;36921;49.006;9.292;2023-07-29T10:19:52;98337.31;;;20.26;100.00
50933;BME280;36921;49.006;9.292;2023-07-29T10:22:20;98317.75;;;21.13;100.00
50933;BME280;36921;49.006;9.292;2023-07-29T10:24:47;98291.16;;;23.03;100.00
50933;BME280;36921;49.006;9.292;2023-07-29T10:27:15;98270.63;;;26.30;100.00
50933;BME280;36921;49.006;9.292;2023-07-29T10:29:43;98258.22;;;28.54;100.00
50933;BME280;36921;49.006;9.292;2023-07-29T10:32:11;98277.56;;;27.94;100.00
50933;BME280;36921;49.006;9.292;2023-07-29T10:34:37;98271.72;;;26.52;100.00
50933;BME280;36921;49.006;9.292;2023-07-29T10:37:03;98282.06;;;26.37;100.00
50933;BME280;36921;49.006;9.292;2023-07-29T10:39:38;98278.94;;;25.99;100.00
50933;BME280;36921;49.006;9.292;2023-07-29T10:42:06;98283.94;;;25.88;100.00
50933;BME280;36921;49.006;9.292;2023-07-29T10:47:19;98304.25;;;24.47;100.00
50933;BME280;36921;49.006;9.292;2023-07-29T10:49:55;98302.31;;;23.87;100.00
50933;BME280;36921;49.006;9.292;2023-07-29T10:52:30;98315.09;;;23.97;100.00
50933;BME280;36921;49.006;9.292;2023-07-29T10:54:56;98293.63;;;25.77;100.00
50933;BME280;36921;49.006;9.292;2023-07-29T10:57:35;98278.91;;;29.03;100.00
50933;BME280;36921;49.006;9.292;2023-07-29T11:00:03;98281.38;;;29.05;100.00
50933;BME280;36921;49.006;9.292;2023-07-29T11:02:35;98281.88;;;32.07;100.00
50933;BME280;36921;49.006;9.292;2023-07-29T11:05:16;98270.97;;;32.34;100.00
50933;BME280;36921;49.006;9.292;2023-07-29T11:07:48;98282.41;;;32.13;100.00
50933;BME280;36921;49.006;9.292;2023-07-29T11:10:15;98282.16;;;29.89;100.00
50933;BME280;36921;49.006;9.292;2023-07-29T11:12:44;98273.47;;;30.86;100.00
50933;BME280;36921;49.006;9.292;2023-07-29T11:15:14;98266.31;;;29.27;100.00
50933;BME280;36921;49.006;9.292;2023-07-29T11:17:42;98269.13;;;29.39;100.00
50933;BME280;36921;49.006;9.292;2023-07-29T11:20:09;98274.41;;;30.07;100.00
50933;BME280;36921;49.006;9.292;2023-07-29T11:22:35;98269.25;;;29.01;100.00
50933;BME280;36921;49.006;9.292;2023-07-29T11:25:02;98263.22;;;30.41;100.00
50933;BME280;36921;49.006;9.292;2023-07-29T11:27:28;98266.38;;;32.73;95.53
50933;BME280;36921;49.006;9.292;2023-07-29T11:29:58;98263.34;;;31.46;91.41
50933;BME280;36921;49.006;9.292;2023-07-29T11:32:24;98269.97;;;29.94;100.00
50933;BME280;36921;49.006;9.292;2023-07-29T11:34:50;98259.22;;;29.51;100.00
50933;BME280;36921;49.006;9.292;2023-07-29T11:37:16;98251.97;;;31.39;100.00
50933;BME280;36921;49.006;9.292;2023-07-29T11:39:43;98253.78;;;32.67;89.00
50933;BME280;36921;49.006;9.292;2023-07-29T11:42:14;98254.59;;;32.83;78.66
50933;BME280;36921;49.006;9.292;2023-07-29T11:44:40;98241.81;;;30.57;87.45
50933;BME280;36921;49.006;9.292;2023-07-29T11:47:07;98237.56;;;30.02;94.88
50933;BME280;36921;49.006;9.292;2023-07-29T11:49:33;98240.34;;;29.35;100.00
50933;BME280;36921;49.006;9.292;2023-07-29T11:51:59;98229.19;;;29.89;100.00
50933;BME280;36921;49.006;9.292;2023-07-29T11:54:25;98237.63;;;30.26;100.00
50933;BME280;36921;49.006;9.292;2023-07-29T11:56:50;98240.72;;;29.67;99.17
50933;BME280;36921;49.006;9.292;2023-07-29T11:59:16;98236.16;;;28.99;100.00
50933;BME280;36921;49.006;9.292;2023-07-29T12:01:41;98233.09;;;29.88;100.00
50933;BME280;36921;49.006;9.292;2023-07-29T12:04:07;98244.06;;;29.39;100.00
50933;BME280;36921;49.006;9.292;2023-07-29T12:06:33;98233.72;;;31.05;97.07
50933;BME280;36921;49.006;9.292;2023-07-29T12:08:58;98228.69;;;31.63;94.89
50933;BME280;36921;49.006;9.292;2023-07-29T12:11:24;98242.69;;;30.12;93.26
50933;BME280;36921;49.006;9.292;2023-07-29T12:13:49;98237.38;;;30.44;93.50
50933;BME280;36921;49.006;9.292;2023-07-29T12:16:17;98220.34;;;29.87;100.00
50933;BME280;36921;49.006;9.292;2023-07-29T12:18:43;98222.50;;;29.69;100.00
50933;BME280;36921;49.006;9.292;2023-07-29T12:21:08;98225.09;;;29.87;93.79
50933;BME280;36921;49.006;9.292;2023-07-29T12:23:34;98219.75;;;31.57;79.66
50933;BME280;36921;49.006;9.292;2023-07-29T12:25:59;98219.94;;;31.80;79.93
50933;BME280;36921;49.006;9.292;2023-07-29T12:28:25;98222.72;;;31.36;77.25
50933;BME280;36921;49.006;9.292;2023-07-29T12:30:55;98217.44;;;31.91;76.04
50933;BME280;36921;49.006;9.292;2023-07-29T12:33:34;98217.81;;;31.33;79.17
50933;BME280;36921;49.006;9.292;2023-07-29T12:36:00;98226.69;;;30.46;76.54
50933;BME280;36921;49.006;9.292;2023-07-29T12:38:26;98219.38;;;30.29;79.28
50933;BME280;36921;49.006;9.292;2023-07-29T12:40:51;98213.22;;;31.53;77.34
50933;BME280;36921;49.006;9.292;2023-07-29T12:43:17;98233.66;;;32.45;70.45
50933;BME280;36921;49.006;9.292;2023-07-29T12:45:42;98229.34;;;33.54;64.66
50933;BME280;36921;49.006;9.292;2023-07-29T12:48:09;98220.81;;;30.02;76.53
50933;BME280;36921;49.006;9.292;2023-07-29T12:50:34;98215.09;;;30.31;75.32
50933;BME280;36921;49.006;9.292;2023-07-29T12:52:59;98219.44;;;29.41;81.78
50933;BME280;36921;49.006;9.292;2023-07-29T12:55:25;98213.88;;;28.99;86.91
50933;BME280;36921;49.006;9.292;2023-07-29T12:57:50;98222.66;;;27.83;98.27
50933;BME280;36921;49.006;9.292;2023-07-29T13:00:16;98210.13;;;27.24;100.00
50933;BME280;36921;49.006;9.292;2023-07-29T13:02:41;98209.63;;;27.40;100.00
50933;BME280;36921;49.006;9.292;2023-07-29T13:05:09;98203.56;;;27.03;100.00